createdAt,value
2018-05-18T00:01:39.280Z,12.05
2018-05-18T00:04:05.204Z,12.07
2018-05-18T00:06:31.160Z,11.98
2018-05-18T00:08:57.029Z,11.92
2018-05-18T00:11:22.891Z,11.99
2018-05-18T00:13:48.908Z,11.87
2018-05-18T00:16:14.789Z,11.83
2018-05-18T00:18:40.665Z,11.83
2018-05-18T00:21:06.748Z,11.78
2018-05-18T00:23:32.656Z,11.81
2018-05-18T00:25:58.623Z,11.72
2018-05-18T00:28:24.888Z,11.71
2018-05-18T00:30:50.772Z,11.75
2018-05-18T00:33:16.683Z,11.65
2018-05-18T00:35:42.625Z,11.63
2018-05-18T00:38:08.607Z,11.59
2018-05-18T00:40:34.520Z,11.65
2018-05-18T00:43:00.473Z,11.56
2018-05-18T00:45:26.339Z,11.54
2018-05-18T00:47:52.222Z,11.56
2018-05-18T00:50:18.233Z,11.47
2018-05-18T00:52:44.118Z,11.48
2018-05-18T00:55:22.351Z,11.42
2018-05-18T00:57:48.230Z,11.51
2018-05-18T01:00:14.151Z,11.48
2018-05-18T01:02:40.555Z,11.43
2018-05-18T01:05:06.445Z,11.38
2018-05-18T01:07:32.351Z,11.33
2018-05-18T01:09:58.268Z,11.34
2018-05-18T01:12:24.160Z,11.37
2018-05-18T01:14:50.121Z,11.33
2018-05-18T01:17:16.058Z,11.32
2018-05-18T01:19:41.946Z,11.25
2018-05-18T01:22:07.811Z,11.26
2018-05-18T01:24:33.735Z,11.31
2018-05-18T01:26:59.716Z,11.25
2018-05-18T01:29:25.619Z,11.17
2018-05-18T01:31:51.820Z,11.22
2018-05-18T01:34:17.761Z,11.21
2018-05-18T01:36:43.668Z,11.15
2018-05-18T01:39:09.680Z,11.10
2018-05-18T01:41:35.565Z,11.02
2018-05-18T01:44:01.453Z,11.05
2018-05-18T01:46:27.614Z,11.02
2018-05-18T01:48:53.482Z,10.96
2018-05-18T01:51:19.445Z,10.98
2018-05-18T01:53:45.424Z,10.99
2018-05-18T01:56:11.287Z,11.00
2018-05-18T01:58:37.156Z,11.03
2018-05-18T02:01:21.315Z,10.98
2018-05-18T02:03:47.263Z,10.97
2018-05-18T02:06:14.033Z,10.84
2018-05-18T02:08:40.623Z,10.88
2018-05-18T02:11:06.498Z,10.89
2018-05-18T02:13:32.367Z,10.85
2018-05-18T02:15:58.387Z,10.81
2018-05-18T02:18:24.251Z,10.81
2018-05-18T02:20:50.130Z,10.76
2018-05-18T02:23:16.052Z,10.77
2018-05-18T02:25:41.921Z,10.79
2018-05-18T02:28:07.880Z,10.69
2018-05-18T02:30:33.787Z,10.62
2018-05-18T02:32:59.699Z,10.58
2018-05-18T02:35:25.590Z,10.59
2018-05-18T02:37:51.960Z,10.52
2018-05-18T02:40:17.875Z,10.47
2018-05-18T02:42:43.748Z,10.43
2018-05-18T02:45:09.671Z,10.47
2018-05-18T02:47:35.569Z,10.44
2018-05-18T02:50:01.481Z,10.51
2018-05-18T02:52:27.600Z,10.42
2018-05-18T02:54:53.460Z,10.41
2018-05-18T02:57:19.301Z,10.38
2018-05-18T02:59:45.221Z,10.37
2018-05-18T03:02:11.100Z,10.30
2018-05-18T03:04:37.067Z,10.28
2018-05-18T03:07:03.038Z,10.17
2018-05-18T03:09:28.942Z,10.12
2018-05-18T03:11:54.826Z,10.08
2018-05-18T03:14:20.756Z,10.07
2018-05-18T03:16:46.716Z,10.05
2018-05-18T03:19:12.585Z,10.10
2018-05-18T03:21:38.515Z,10.06
2018-05-18T03:24:04.396Z,10.06
2018-05-18T03:26:30.292Z,10.04
2018-05-18T03:28:56.326Z,10.08
2018-05-18T03:31:22.202Z,10.05
2018-05-18T03:33:48.075Z,10.09
2018-05-18T03:36:14.036Z,10.04
2018-05-18T03:38:39.892Z,10.15
2018-05-18T03:41:05.910Z,10.07
2018-05-18T03:43:31.831Z,10.11
2018-05-18T03:45:57.812Z,10.13
2018-05-18T03:48:23.679Z,10.17
2018-05-18T03:50:49.610Z,10.11
2018-05-18T03:53:15.678Z,10.13
2018-05-18T03:55:41.552Z,10.14
2018-05-18T03:58:07.470Z,10.12
2018-05-18T04:00:33.643Z,10.20
2018-05-18T04:03:12.238Z,10.29
2018-05-18T04:05:50.543Z,10.24
2018-05-18T04:08:29.020Z,10.31
2018-05-18T04:10:54.901Z,10.32
2018-05-18T04:13:20.763Z,10.35
2018-05-18T04:15:46.809Z,10.30
2018-05-18T04:18:12.732Z,10.31
2018-05-18T04:20:38.656Z,10.38
2018-05-18T04:23:05.467Z,10.37
2018-05-18T04:25:31.344Z,10.39
2018-05-18T04:27:57.549Z,10.40
2018-05-18T04:30:24.357Z,10.44
2018-05-18T04:32:51.085Z,10.52
2018-05-18T04:35:16.959Z,10.59
2018-05-18T04:37:42.889Z,10.63
2018-05-18T04:40:08.865Z,10.66
2018-05-18T04:42:35.262Z,10.77
2018-05-18T04:45:02.158Z,10.83
2018-05-18T04:47:28.042Z,10.99
2018-05-18T04:49:53.936Z,11.16
2018-05-18T04:52:19.954Z,11.35
2018-05-18T04:54:45.897Z,11.48
2018-05-18T04:57:11.844Z,11.76
2018-05-18T04:59:37.772Z,11.86
2018-05-18T05:02:04.329Z,11.92
2018-05-18T05:04:31.267Z,12.11
2018-05-18T05:06:59.260Z,12.24
2018-05-18T05:09:25.152Z,12.30
2018-05-18T05:11:51.036Z,12.29
2018-05-18T05:14:16.990Z,12.52
2018-05-18T05:16:42.897Z,12.47
2018-05-18T05:19:08.847Z,12.53
2018-05-18T05:21:34.811Z,12.47
2018-05-18T05:24:00.716Z,12.59
2018-05-18T05:26:26.672Z,12.48
2018-05-18T05:28:52.614Z,12.50
2018-05-18T05:31:18.572Z,12.56
2018-05-18T05:33:44.461Z,12.70
2018-05-18T05:36:10.376Z,12.83
2018-05-18T05:38:36.389Z,12.95
2018-05-18T05:41:02.300Z,12.90
2018-05-18T05:43:28.278Z,13.05
2018-05-18T05:45:54.152Z,12.94
2018-05-18T05:48:20.034Z,13.17
2018-05-18T05:50:46.047Z,13.37
2018-05-18T05:53:11.948Z,13.37
2018-05-18T05:55:37.907Z,13.23
2018-05-18T05:58:03.851Z,13.34
2018-05-18T06:00:29.748Z,13.24
2018-05-18T06:02:55.719Z,13.23
2018-05-18T06:05:21.648Z,13.41
2018-05-18T06:07:48.498Z,13.40
2018-05-18T06:10:14.375Z,13.59
2018-05-18T06:12:40.304Z,13.58
2018-05-18T06:15:06.243Z,13.77
2018-05-18T06:17:32.940Z,13.59
2018-05-18T06:19:58.876Z,13.81
2018-05-18T06:22:24.764Z,13.86
2018-05-18T06:24:50.654Z,13.77
2018-05-18T06:27:16.652Z,13.66
2018-05-18T06:29:42.574Z,13.70
2018-05-18T06:32:08.449Z,13.67
2018-05-18T06:34:34.519Z,13.88
2018-05-18T06:37:01.409Z,14.12
2018-05-18T06:39:27.275Z,14.10
2018-05-18T06:41:53.195Z,14.01
2018-05-18T06:44:19.068Z,14.12
2018-05-18T06:46:44.999Z,14.09
2018-05-18T06:49:10.911Z,14.02
2018-05-18T06:51:36.817Z,14.11
2018-05-18T06:54:02.720Z,13.96
2018-05-18T06:56:28.654Z,14.08
2018-05-18T06:58:54.539Z,14.02
2018-05-18T07:01:20.511Z,14.28
2018-05-18T07:03:46.491Z,14.29
2018-05-18T07:06:12.356Z,14.43
2018-05-18T07:08:38.380Z,14.43
2018-05-18T07:11:04.321Z,14.45
2018-05-18T07:13:30.253Z,14.28
2018-05-18T07:15:56.125Z,14.43
2018-05-18T07:18:22.133Z,14.55
2018-05-18T07:20:48.004Z,14.66
2018-05-18T07:23:13.915Z,14.52
2018-05-18T07:25:39.858Z,14.69
2018-05-18T07:28:05.853Z,14.91
2018-05-18T07:30:31.771Z,14.96
2018-05-18T07:32:57.709Z,14.82
2018-05-18T07:35:23.660Z,15.06
2018-05-18T07:37:49.552Z,15.33
2018-05-18T07:40:15.585Z,15.30
2018-05-18T07:42:41.463Z,15.18
2018-05-18T07:45:07.345Z,15.26
2018-05-18T07:47:33.619Z,15.29
2018-05-18T07:49:59.508Z,15.14
2018-05-18T07:52:25.447Z,15.24
2018-05-18T07:54:51.377Z,15.22
2018-05-18T07:57:17.247Z,15.53
2018-05-18T07:59:43.128Z,15.66
2018-05-18T08:02:09.051Z,15.76
2018-05-18T08:04:35.048Z,15.87
2018-05-18T08:07:00.983Z,15.72
2018-05-18T08:09:26.955Z,15.80
2018-05-18T08:11:52.847Z,15.91
2018-05-18T08:14:18.735Z,16.06
2018-05-18T08:16:44.680Z,15.79
2018-05-18T08:19:10.546Z,16.13
2018-05-18T08:21:36.526Z,16.09
2018-05-18T08:24:02.821Z,16.03
2018-05-18T08:26:28.713Z,15.88
2018-05-18T08:29:07.198Z,16.22
2018-05-18T08:31:33.167Z,16.40
2018-05-18T08:34:19.327Z,16.33
2018-05-18T08:36:45.192Z,16.47
2018-05-18T08:39:11.109Z,16.31
2018-05-18T08:41:37.039Z,16.25
2018-05-18T08:44:02.987Z,16.46
2018-05-18T08:46:28.887Z,16.42
2018-05-18T08:48:54.915Z,16.44
2018-05-18T08:51:20.784Z,16.32
2018-05-18T08:53:46.698Z,16.50
2018-05-18T08:56:12.629Z,16.64
2018-05-18T08:58:38.500Z,16.78
2018-05-18T09:01:04.424Z,16.88
2018-05-18T09:03:31.431Z,16.52
2018-05-18T09:05:57.355Z,16.42
2018-05-18T09:08:30.557Z,16.31
2018-05-18T09:10:56.443Z,16.37
2018-05-18T09:13:22.345Z,16.08
2018-05-18T09:15:48.317Z,16.09
2018-05-18T09:18:14.179Z,15.90
2018-05-18T09:20:40.063Z,16.30
2018-05-18T09:23:06.006Z,16.50
2018-05-18T09:25:31.939Z,16.78
2018-05-18T09:27:58.692Z,16.27
2018-05-18T09:30:24.607Z,16.85
2018-05-18T09:32:50.589Z,16.98
2018-05-18T09:35:16.508Z,16.78
2018-05-18T09:37:42.432Z,17.06
2018-05-18T09:40:08.349Z,17.29
2018-05-18T09:42:37.505Z,17.52
2018-05-18T09:45:04.461Z,17.56
2018-05-18T09:47:30.747Z,18.01
2018-05-18T09:49:56.648Z,18.04
2018-05-18T09:52:22.588Z,17.78
2018-05-18T09:54:48.597Z,17.59
2018-05-18T09:57:14.477Z,17.68
2018-05-18T09:59:40.425Z,17.86
2018-05-18T10:02:11.749Z,17.94
2018-05-18T10:04:37.639Z,18.34
2018-05-18T10:07:03.696Z,18.68
2018-05-18T10:09:29.583Z,18.85
2018-05-18T10:11:55.464Z,19.00
2018-05-18T10:14:21.379Z,18.54
2018-05-18T10:16:47.277Z,18.51
2018-05-18T10:19:13.162Z,18.33
2018-05-18T10:21:39.147Z,18.62
2018-05-18T10:24:05.068Z,18.88
2018-05-18T10:26:31.020Z,18.63
2018-05-18T10:28:56.959Z,18.18
2018-05-18T10:31:22.819Z,18.01
2018-05-18T10:33:48.697Z,18.04
2018-05-18T10:36:14.704Z,17.97
2018-05-18T10:38:40.619Z,17.56
2018-05-18T10:41:06.567Z,17.48
2018-05-18T10:43:32.587Z,18.05
2018-05-18T10:45:58.479Z,18.05
2018-05-18T10:48:24.476Z,17.95
2018-05-18T10:50:50.428Z,17.92
2018-05-18T10:53:16.303Z,18.18
2018-05-18T10:55:42.155Z,18.18
2018-05-18T10:58:08.107Z,18.30
2018-05-18T11:00:34.165Z,18.11
2018-05-18T11:03:05.507Z,18.30
2018-05-18T11:05:31.509Z,18.24
2018-05-18T11:07:57.404Z,18.54
2018-05-18T11:10:23.277Z,18.13
2018-05-18T11:12:49.300Z,18.27
2018-05-18T11:15:15.168Z,18.29
2018-05-18T11:17:42.112Z,18.17
2018-05-18T11:20:08.140Z,18.18
2018-05-18T11:22:34.001Z,18.07
2018-05-18T11:25:01.348Z,17.80
2018-05-18T11:27:27.319Z,17.85
2018-05-18T11:29:53.211Z,17.48
2018-05-18T11:32:20.208Z,17.61
2018-05-18T11:34:46.137Z,17.49
2018-05-18T11:37:12.012Z,17.48
2018-05-18T11:39:37.901Z,18.00
2018-05-18T11:42:03.874Z,18.08
2018-05-18T11:44:29.790Z,18.39
2018-05-18T11:46:55.667Z,18.24
2018-05-18T11:49:21.593Z,18.23
2018-05-18T11:51:47.513Z,18.69
2018-05-18T11:54:13.402Z,18.57
2018-05-18T11:56:39.339Z,18.70
2018-05-18T11:59:05.228Z,18.77
2018-05-18T12:01:39.719Z,18.62
2018-05-18T12:04:05.704Z,18.61
2018-05-18T12:06:31.596Z,18.63
2018-05-18T12:08:57.547Z,19.03
2018-05-18T12:11:23.431Z,18.64
2018-05-18T12:13:49.300Z,18.63
2018-05-18T12:16:15.319Z,18.62
2018-05-18T12:18:41.195Z,18.31
2018-05-18T12:21:07.072Z,18.46
2018-05-18T12:23:33.099Z,18.11
2018-05-18T12:25:58.984Z,18.46
2018-05-18T12:28:25.848Z,18.30
2018-05-18T12:30:51.823Z,18.43
2018-05-18T12:33:17.704Z,17.95
2018-05-18T12:35:43.598Z,18.00
2018-05-18T12:38:09.651Z,18.21
2018-05-18T12:40:35.637Z,18.35
2018-05-18T12:43:01.549Z,18.28
2018-05-18T12:45:27.501Z,18.10
2018-05-18T12:47:53.382Z,17.97
2018-05-18T12:50:19.261Z,17.94
2018-05-18T12:52:45.211Z,18.22
2018-05-18T12:55:11.109Z,18.08
2018-05-18T12:57:37.012Z,18.30
2018-05-18T13:00:03.036Z,18.14
2018-05-18T13:02:28.917Z,18.12
2018-05-18T13:04:54.805Z,17.67
2018-05-18T13:07:20.787Z,17.78
2018-05-18T13:09:46.740Z,17.58
2018-05-18T13:12:12.632Z,17.61
2018-05-18T13:14:38.572Z,17.56
2018-05-18T13:17:04.450Z,17.48
2018-05-18T13:19:30.419Z,17.08
2018-05-18T13:21:56.352Z,17.29
2018-05-18T13:24:28.053Z,17.04
2018-05-18T13:26:54.844Z,17.15
2018-05-18T13:29:20.916Z,16.95
2018-05-18T13:31:46.804Z,17.06
2018-05-18T13:34:12.713Z,17.00
2018-05-18T13:36:38.757Z,16.73
2018-05-18T13:39:04.659Z,16.79
2018-05-18T13:41:30.568Z,16.81
2018-05-18T13:43:56.611Z,16.27
2018-05-18T13:46:22.492Z,16.47
2018-05-18T13:48:48.478Z,16.41
2018-05-18T13:51:14.400Z,16.56
2018-05-18T13:53:40.273Z,16.50
2018-05-18T13:56:06.168Z,16.51
2018-05-18T13:58:32.328Z,16.74
2018-05-18T14:00:58.302Z,17.05
2018-05-18T14:03:24.163Z,17.11
2018-05-18T14:05:50.131Z,17.00
2018-05-18T14:08:16.014Z,16.94
2018-05-18T14:10:41.887Z,16.69
2018-05-18T14:13:07.920Z,16.63
2018-05-18T14:15:33.836Z,16.73
2018-05-18T14:17:59.821Z,16.58
2018-05-18T14:20:26.193Z,16.78
2018-05-18T14:22:52.111Z,16.79
2018-05-18T14:25:18.094Z,16.77
2018-05-18T14:27:44.698Z,16.74
2018-05-18T14:30:10.624Z,16.69
2018-05-18T14:32:36.575Z,16.68
2018-05-18T14:35:03.210Z,16.66
2018-05-18T14:37:29.153Z,16.30
2018-05-18T14:39:55.044Z,16.28
2018-05-18T14:42:20.962Z,16.27
2018-05-18T14:44:46.849Z,16.27
2018-05-18T14:47:12.749Z,16.15
2018-05-18T14:49:39.029Z,16.54
2018-05-18T14:52:04.948Z,16.63
2018-05-18T14:54:30.897Z,16.69
2018-05-18T14:56:56.852Z,16.93
2018-05-18T14:59:22.733Z,16.97
2018-05-18T15:01:48.604Z,16.97
2018-05-18T15:04:14.531Z,16.76
2018-05-18T15:06:40.426Z,16.90
2018-05-18T15:09:06.368Z,16.90
2018-05-18T15:11:32.344Z,16.50
2018-05-18T15:13:58.364Z,16.43
2018-05-18T15:16:24.315Z,16.46
2018-05-18T15:18:50.189Z,16.59
2018-05-18T15:21:16.060Z,16.45
2018-05-18T15:23:41.954Z,16.51
2018-05-18T15:26:07.899Z,16.56
2018-05-18T15:28:41.480Z,16.63
2018-05-18T15:31:07.328Z,16.50
2018-05-18T15:33:33.360Z,16.69
2018-05-18T15:36:00.286Z,16.44
2018-05-18T15:38:26.188Z,16.57
2018-05-18T15:40:52.132Z,16.45
2018-05-18T15:43:18.038Z,16.33
2018-05-18T15:45:43.931Z,16.25
2018-05-18T15:48:09.864Z,16.32
2018-05-18T15:50:35.745Z,16.30
2018-05-18T15:53:01.645Z,16.29
2018-05-18T15:55:27.575Z,15.97
2018-05-18T15:57:53.503Z,16.12
2018-05-18T16:00:19.385Z,16.05
2018-05-18T16:02:45.331Z,15.88
2018-05-18T16:05:11.239Z,16.04
2018-05-18T16:07:37.133Z,16.08
2018-05-18T16:10:03.073Z,16.00
2018-05-18T16:12:28.967Z,15.94
2018-05-18T16:14:54.839Z,15.94
2018-05-18T16:17:20.832Z,15.93
2018-05-18T16:20:00.521Z,15.87
2018-05-18T16:22:26.735Z,15.79
2018-05-18T16:24:52.607Z,15.67
2018-05-18T16:27:18.483Z,15.63
2018-05-18T16:29:44.527Z,15.58
2018-05-18T16:32:13.876Z,15.54
2018-05-18T16:34:39.768Z,15.60
2018-05-18T16:37:05.722Z,15.44
2018-05-18T16:39:31.623Z,15.42
2018-05-18T16:41:57.574Z,15.34
2018-05-18T16:44:23.524Z,15.42
2018-05-18T16:46:49.401Z,15.38
2018-05-18T16:49:15.332Z,15.26
2018-05-18T16:51:41.238Z,15.22
2018-05-18T16:54:07.194Z,15.23
2018-05-18T16:56:33.075Z,15.07
2018-05-18T16:58:58.997Z,15.12
2018-05-18T17:01:24.960Z,15.06
2018-05-18T17:03:50.843Z,14.92
2018-05-18T17:06:16.855Z,14.70
2018-05-18T17:08:42.755Z,14.68
2018-05-18T17:11:08.680Z,14.65
2018-05-18T17:13:34.673Z,14.57
2018-05-18T17:16:00.577Z,14.64
2018-05-18T17:18:26.531Z,14.72
2018-05-18T17:20:52.459Z,14.55
2018-05-18T17:23:18.328Z,14.55
2018-05-18T17:25:44.251Z,14.51
2018-05-18T17:28:10.183Z,14.51
2018-05-18T17:30:36.251Z,14.56
2018-05-18T17:33:02.203Z,14.53
2018-05-18T17:35:28.069Z,14.59
2018-05-18T17:37:54.033Z,14.51
2018-05-18T17:40:19.929Z,14.43
2018-05-18T17:42:45.944Z,14.43
2018-05-18T17:45:11.835Z,14.49
2018-05-18T17:47:37.724Z,14.48
2018-05-18T17:50:03.741Z,14.39
2018-05-18T17:52:29.620Z,14.35
2018-05-18T17:54:55.584Z,14.29
2018-05-18T17:57:21.821Z,14.31
2018-05-18T17:59:47.708Z,14.35
2018-05-18T18:02:13.645Z,14.36
2018-05-18T18:04:39.588Z,14.36
2018-05-18T18:07:05.547Z,14.37
2018-05-18T18:09:31.446Z,14.32
2018-05-18T18:11:57.380Z,14.30
2018-05-18T18:14:23.335Z,14.31
2018-05-18T18:16:49.199Z,14.30
2018-05-18T18:19:16.238Z,14.28
2018-05-18T18:21:42.121Z,14.24
2018-05-18T18:24:07.993Z,14.27
2018-05-18T18:26:34.465Z,14.26
2018-05-18T18:29:01.245Z,14.26
2018-05-18T18:31:27.226Z,14.25
2018-05-18T18:33:53.142Z,14.27
2018-05-18T18:36:19.095Z,14.25
2018-05-18T18:38:44.953Z,14.26
2018-05-18T18:41:10.868Z,14.22
2018-05-18T18:43:36.845Z,14.27
2018-05-18T18:46:02.803Z,14.30
2018-05-18T18:48:28.735Z,14.16
2018-05-18T18:50:54.720Z,14.24
2018-05-18T18:53:20.616Z,14.26
2018-05-18T18:55:47.077Z,14.22
2018-05-18T18:58:12.961Z,14.17
2018-05-18T19:00:38.839Z,14.29
2018-05-18T19:03:05.213Z,14.18
2018-05-18T19:05:31.197Z,14.11
2018-05-18T19:07:57.216Z,14.23
2018-05-18T19:10:23.119Z,14.15
2018-05-18T19:12:48.991Z,14.11
2018-05-18T19:15:14.931Z,14.18
2018-05-18T19:17:40.939Z,14.18
2018-05-18T19:20:06.916Z,14.26
2018-05-18T19:22:32.979Z,14.15
2018-05-18T19:24:58.909Z,14.14
2018-05-18T19:27:24.900Z,14.12
2018-05-18T19:29:50.842Z,14.10
2018-05-18T19:32:16.816Z,14.07
2018-05-18T19:34:42.690Z,14.08
2018-05-18T19:37:08.567Z,13.97
2018-05-18T19:39:34.848Z,14.02
2018-05-18T19:42:00.750Z,13.96
2018-05-18T19:44:26.708Z,13.89
2018-05-18T19:46:52.656Z,13.79
2018-05-18T19:49:18.545Z,13.86
2018-05-18T19:51:44.516Z,13.85
2018-05-18T19:54:10.434Z,13.83
2018-05-18T19:56:36.411Z,13.83
2018-05-18T19:59:02.328Z,13.73
2018-05-18T20:01:28.269Z,13.79
2018-05-18T20:03:54.212Z,13.77
2018-05-18T20:06:20.096Z,13.65
2018-05-18T20:08:46.960Z,13.66
2018-05-18T20:11:12.843Z,13.68
2018-05-18T20:13:38.722Z,13.70
2018-05-18T20:16:05.708Z,13.70
2018-05-18T20:18:31.599Z,13.78
2018-05-18T20:20:57.900Z,13.68
2018-05-18T20:23:23.869Z,13.73
2018-05-18T20:25:49.736Z,13.67
2018-05-18T20:28:15.651Z,13.61
2018-05-18T20:30:41.559Z,13.56
2018-05-18T20:33:07.516Z,13.50
2018-05-18T20:35:33.380Z,13.45
2018-05-18T20:38:00.177Z,13.37
2018-05-18T20:40:26.101Z,13.33
2018-05-18T20:42:51.983Z,13.31
2018-05-18T20:45:17.989Z,13.29
2018-05-18T20:47:43.871Z,13.26
2018-05-18T20:50:10.565Z,13.26
2018-05-18T20:52:36.555Z,13.26
2018-05-18T20:55:02.459Z,13.17
2018-05-18T20:57:28.411Z,13.20
2018-05-18T20:59:54.651Z,13.14
2018-05-18T21:02:20.581Z,13.13
2018-05-18T21:04:46.520Z,13.04
2018-05-18T21:07:12.448Z,13.02
2018-05-18T21:09:38.412Z,12.99
2018-05-18T21:12:04.347Z,12.98
2018-05-18T21:14:30.288Z,13.06
2018-05-18T21:16:56.230Z,13.12
2018-05-18T21:19:22.204Z,13.12
2018-05-18T21:21:48.218Z,13.23
2018-05-18T21:24:14.076Z,13.21
2018-05-18T21:26:40.015Z,13.28
2018-05-18T21:29:05.995Z,13.24
2018-05-18T21:31:31.883Z,13.26
2018-05-18T21:33:58.795Z,13.29
2018-05-18T21:36:25.024Z,13.27
2018-05-18T21:38:50.928Z,13.30
2018-05-18T21:41:16.847Z,13.23
2018-05-18T21:43:42.783Z,13.24
2018-05-18T21:46:08.790Z,13.18
2018-05-18T21:48:34.857Z,13.20
2018-05-18T21:51:01.233Z,13.25
2018-05-18T21:53:27.178Z,13.25
2018-05-18T21:55:53.075Z,13.20
2018-05-18T21:58:19.008Z,13.26
2018-05-18T22:00:44.958Z,13.24
2018-05-18T22:03:10.836Z,13.30
2018-05-18T22:05:37.138Z,13.23
2018-05-18T22:08:03.054Z,13.26
2018-05-18T22:10:28.940Z,13.23
2018-05-18T22:12:54.865Z,13.31
2018-05-18T22:15:21.295Z,13.27
2018-05-18T22:17:47.163Z,13.28
2018-05-18T22:20:13.131Z,13.29
2018-05-18T22:22:39.054Z,13.36
2018-05-18T22:25:05.445Z,13.33
2018-05-18T22:27:31.437Z,13.28
2018-05-18T22:29:57.320Z,13.31
2018-05-18T22:32:23.210Z,13.39
2018-05-18T22:34:49.577Z,13.38
2018-05-18T22:37:15.540Z,13.35
2018-05-18T22:39:41.409Z,13.37
2018-05-18T22:42:07.332Z,13.33
2018-05-18T22:44:33.222Z,13.34
2018-05-18T22:46:59.305Z,13.35
2018-05-18T22:49:25.330Z,13.38
2018-05-18T22:51:51.219Z,13.40
2018-05-18T22:54:17.103Z,13.39
2018-05-18T22:56:43.048Z,13.42
2018-05-18T22:59:08.947Z,13.37
2018-05-18T23:01:35.747Z,13.38
2018-05-18T23:04:01.967Z,13.34
2018-05-18T23:06:27.885Z,13.38
2018-05-18T23:08:53.770Z,13.45
2018-05-18T23:11:19.709Z,13.38
2018-05-18T23:13:45.729Z,13.38
2018-05-18T23:16:11.647Z,13.41
2018-05-18T23:18:37.583Z,13.30
2018-05-18T23:21:03.486Z,13.32
2018-05-18T23:23:29.351Z,13.30
2018-05-18T23:25:55.383Z,13.29
2018-05-18T23:28:21.255Z,13.34
2018-05-18T23:30:47.135Z,13.31
2018-05-18T23:33:13.484Z,13.28
2018-05-18T23:35:39.363Z,13.32
2018-05-18T23:38:05.349Z,13.32
2018-05-18T23:40:31.426Z,13.37
2018-05-18T23:42:57.329Z,13.31
2018-05-18T23:45:23.212Z,13.33
2018-05-18T23:47:49.160Z,13.32
2018-05-18T23:50:15.152Z,13.28
2018-05-18T23:52:41.049Z,13.32
2018-05-18T23:55:06.973Z,13.30
2018-05-18T23:57:32.848Z,13.38
2018-05-18T23:59:58.754Z,13.35
